Date,TemperatureHighF,TemperatureAvgF,TemperatureLowF,DewpointHighF,DewpointAvgF,DewpointLowF,HumidityHigh,HumidityAvg,HumidityLow,PressureMaxIn,PressureMinIn,WindSpeedMaxMPH,WindSpeedAvgMPH,GustSpeedMaxMPH,PrecipitationSumIn
2014-1-1,47,31,27,-100,-100,-100,0,0,100,0.00,40.00,0,-999,0,0.00
2014-1-2,33,32,32,-100,-100,-100,0,0,100,0.00,40.00,0,-999,0,0.00
2014-1-3,40,35,31,-100,-100,-100,0,0,100,0.00,40.00,0,-999,0,0.00
2014-1-4,38,30,26,-100,-100,-100,0,0,100,0.00,40.00,0,-999,0,0.00
2014-1-5,48,37,24,-100,-100,-100,0,0,100,0.00,40.00,0,-999,0,0.00
2014-1-6,32,31,30,-100,-100,-100,0,0,100,0.00,40.00,0,-999,0,0.00
2014-1-7,42,32,28,-100,-100,-100,0,0,100,0.00,40.00,0,-999,0,0.00
2014-1-8,39,30,24,-100,-100,-100,0,0,100,0.00,40.00,0,-999,0,0.01
2014-1-9,27,27,27,-100,-100,-100,0,0,100,0.00,40.00,0,-999,0,0.00
2014-1-12,19,17,15,-100,-100,-100,0,0,100,0.00,40.00,0,-999,0,0.00
2014-1-13,37,35,33,-100,-100,-100,0,0,100,0.00,40.00,0,-999,0,0.00
2014-1-14,41,39,36,-100,-100,-100,0,0,100,0.00,40.00,0,-999,0,0.01
2014-1-15,47,43,41,-100,-100,-100,0,0,100,0.00,40.00,0,-999,0,0.00
2014-1-16,45,41,39,-100,-100,-100,0,0,100,0.00,40.00,0,-999,0,0.00
2014-1-17,52,40,30,-100,-100,-100,0,0,100,0.00,40.00,0,-999,0,0.00
2014-1-18,49,35,31,-100,-100,-100,0,0,100,0.00,40.00,0,-999,0,0.00
2014-1-19,49,40,31,-100,-100,-100,0,0,100,0.00,40.00,0,-999,0,0.00
2014-1-20,44,33,26,-100,-100,-100,0,0,100,0.00,40.00,0,-999,0,0.00
2014-1-21,36,31,29,-100,-100,-100,0,0,100,0.00,40.00,0,-999,0,0.00
2014-1-22,30,30,29,-100,-100,-100,0,0,100,0.00,40.00,0,-999,0,0.00
2014-1-27,27,27,27,-100,-100,-100,0,0,100,0.00,40.00,0,-999,0,0.00
2014-1-29,39,39,39,-100,-100,-100,0,0,100,0.00,40.00,0,-999,0,0.00
2014-1-30,20,20,20,-100,-100,-100,0,0,100,0.00,40.00,0,-999,0,0.00
2014-1-31,26,19,13,-100,-100,-100,0,0,100,0.00,40.00,0,-999,0,0.02
2014-2-1,30,17,9,-100,-100,-100,0,0,100,0.00,40.00,0,-999,0,0.02
2014-2-2,26,17,11,-100,-100,-100,0,0,100,0.00,40.00,0,-999,0,0.01
2014-2-3,23,19,14,-100,-100,-100,0,0,100,0.00,40.00,0,-999,0,0.01
2014-2-4,26,14,7,-100,-100,-100,0,0,100,0.00,40.00,0,-999,0,0.00
2014-2-5,15,11,10,-100,-100,-100,0,0,100,0.00,40.00,0,-999,0,0.00
2014-2-6,25,25,24,-100,-100,-100,0,0,100,0.00,40.00,0,-999,0,0.01
2014-2-7,27,24,22,-100,-100,-100,0,0,100,0.00,40.00,0,-999,0,0.01
2014-2-11,32,32,32,-100,-100,-100,0,0,100,0.00,40.00,0,-999,0,0.00
2014-2-12,38,32,29,-100,-100,-100,0,0,100,0.00,40.00,0,-999,0,0.00
2014-2-13,37,34,30,-100,-100,-100,0,0,100,0.00,40.00,0,-999,0,0.00
2014-2-15,44,42,40,-100,-100,-100,0,0,100,0.00,40.00,0,-999,0,0.00
2014-2-16,38,33,28,-100,-100,-100,0,0,100,0.00,40.00,0,-999,0,0.00
2014-2-17,33,28,25,-100,-100,-100,0,0,100,0.00,40.00,0,-999,0,0.00
2014-2-18,35,29,24,-100,-100,-100,0,0,100,0.00,40.00,0,-999,0,0.00
2014-2-19,28,28,27,-100,-100,-100,0,0,100,0.00,40.00,0,-999,0,0.00
2014-2-20,40,28,22,-100,-100,-100,0,0,100,0.00,40.00,0,-999,0,0.00
2014-2-21,42,30,23,-100,-100,-100,0,0,100,0.00,40.00,0,-999,0,0.00
2014-2-22,43,31,24,-100,-100,-100,0,0,100,0.00,40.00,0,-999,0,0.00
2014-2-23,45,28,22,-100,-100,-100,0,0,100,0.00,40.00,0,-999,0,0.00
2014-2-24,29,27,25,-100,-100,-100,0,0,100,0.00,40.00,0,-999,0,0.00
2014-2-25,47,34,27,-100,-100,-100,0,0,100,0.00,40.00,0,-999,0,0.00
2014-2-26,37,34,32,-100,-100,-100,0,0,100,0.00,40.00,0,-999,0,0.00
2014-2-27,31,27,23,-100,-100,-100,0,0,100,0.00,40.00,0,-999,0,0.06
2014-2-28,34,31,27,-100,-100,-100,0,0,100,0.00,40.00,0,-999,0,0.03
2014-3-1,34,27,23,-100,-100,-100,0,0,100,0.00,40.00,0,-999,0,0.02
2014-3-2,34,27,21,-100,-100,-100,0,0,100,0.00,40.00,0,-999,0,0.00
2014-3-3,35,30,24,-100,-100,-100,0,0,100,0.00,40.00,0,-999,0,0.01
2014-3-4,42,33,28,-100,-100,-100,0,0,100,0.00,40.00,0,-999,0,0.01
2014-3-5,42,35,31,-100,-100,-100,0,0,100,0.00,40.00,0,-999,0,0.00
2014-3-6,38,32,24,-100,-100,-100,0,0,100,0.00,40.00,0,-999,0,0.01
2014-3-7,39,28,22,-100,-100,-100,0,0,100,0.00,40.00,0,-999,0,0.00
2014-3-8,52,44,27,-100,-100,-100,0,0,100,0.00,40.00,0,-999,0,0.00
2014-3-9,47,40,35,-100,-100,-100,0,0,100,0.00,40.00,0,-999,0,0.01
2014-3-10,39,31,23,-100,-100,-100,0,0,100,0.00,40.00,0,-999,0,0.01
2014-3-11,30,27,23,-100,-100,-100,0,0,100,0.00,40.00,0,-999,0,0.00
2014-3-12,31,23,21,-100,-100,-100,0,0,100,0.00,40.00,0,-999,0,0.00
2014-3-13,44,32,27,-100,-100,-100,0,0,100,0.00,40.00,0,-999,0,0.01
2014-3-14,39,30,26,-100,-100,-100,0,0,100,0.00,40.00,0,-999,0,0.00
2014-3-15,32,30,26,-100,-100,-100,0,0,100,0.00,40.00,0,-999,0,0.00
2014-3-16,52,41,31,-100,-100,-100,0,0,100,0.00,40.00,0,-999,0,0.00
2014-3-17,36,34,32,-100,-100,-100,0,0,100,0.00,40.00,0,-999,0,0.00
2014-3-18,36,29,24,-100,-100,-100,0,0,100,0.00,40.00,0,-999,0,0.00
2014-3-19,44,28,24,-100,-100,-100,0,0,100,0.00,40.00,0,-999,0,0.01
2014-3-20,45,34,28,-100,-100,-100,0,0,100,0.00,40.00,0,-999,0,0.01
2014-3-21,31,29,27,-100,-100,-100,0,0,100,0.00,40.00,0,-999,0,0.00
2014-3-22,41,31,26,-100,-100,-100,0,0,100,0.00,40.00,0,-999,0,0.00
2014-3-23,45,43,42,-100,-100,-100,0,0,100,0.00,40.00,0,-999,0,0.00
2014-3-24,48,36,28,-100,-100,-100,0,0,100,0.00,40.00,0,-999,0,0.00
2014-3-26,24,23,22,-100,-100,-100,0,0,100,0.00,40.00,0,-999,0,0.00
2014-3-27,28,24,23,-100,-100,-100,0,0,100,0.00,40.00,0,-999,0,0.00
2014-3-28,27,26,25,-100,-100,-100,0,0,100,0.00,40.00,0,-999,0,0.00
2014-3-29,35,34,33,-100,-100,-100,0,0,100,0.00,40.00,0,-999,0,0.01
2014-3-30,26,22,19,-100,-100,-100,0,0,100,0.00,40.00,0,-999,0,0.05
2014-3-31,25,23,20,-100,-100,-100,0,0,100,0.00,40.00,0,-999,0,0.00
2014-4-1,26,21,17,-100,-100,-100,0,0,100,0.00,40.00,0,-999,0,0.00
2014-4-2,34,25,18,-100,-100,-100,0,0,100,0.00,40.00,0,-999,0,0.00
2014-4-3,33,23,15,-100,-100,-100,0,0,100,0.00,40.00,0,-999,0,0.01
2014-4-4,36,26,18,-100,-100,-100,0,0,100,0.00,40.00,0,-999,0,0.01
2014-4-5,35,26,17,-100,-100,-100,0,0,100,0.00,40.00,0,-999,0,0.01
2014-4-6,45,37,31,-100,-100,-100,0,0,100,0.00,40.00,0,-999,0,0.00
2014-4-7,53,44,35,-100,-100,-100,0,0,100,0.00,40.00,0,-999,0,0.03
2014-4-8,53,43,33,-100,-100,-100,0,0,100,0.00,40.00,0,-999,0,0.00
2014-4-9,52,41,33,-100,-100,-100,0,0,100,0.00,40.00,0,-999,0,0.00
2014-4-10,54,41,32,-100,-100,-100,0,0,100,0.00,40.00,0,-999,0,0.00
2014-4-11,53,39,33,-100,-100,-100,0,0,100,0.00,40.00,0,-999,0,0.00
2014-4-12,49,38,33,-100,-100,-100,0,0,100,0.00,40.00,0,-999,0,0.01
2014-4-13,44,44,44,-100,-100,-100,0,0,100,0.00,40.00,0,-999,0,0.00
2014-4-17,54,43,36,-100,-100,-100,0,0,100,0.00,40.00,0,-999,0,0.00
2014-4-18,41,37,35,-100,-100,-100,0,0,100,0.00,40.00,0,-999,0,0.00
2014-4-19,50,38,33,-100,-100,-100,0,0,100,0.00,40.00,0,-999,0,0.01
2014-4-20,49,36,29,-100,-100,-100,0,0,100,0.00,40.00,0,-999,0,0.00
2014-4-21,51,42,34,-100,-100,-100,0,0,100,0.00,40.00,0,-999,0,0.01
2014-4-22,33,27,22,-100,-100,-100,0,0,100,0.00,40.00,0,-999,0,0.01
2014-4-23,41,27,17,-100,-100,-100,0,0,100,0.00,40.00,0,-999,0,0.01
2014-4-24,44,36,29,-100,-100,-100,0,0,100,0.00,40.00,0,-999,0,0.02
2014-4-25,30,29,18,-100,-100,-100,0,0,100,0.00,40.00,0,-999,0,0.04
2014-4-26,31,26,23,-100,-100,-100,0,0,100,0.00,40.00,0,-999,0,0.03
2014-4-27,37,29,20,-100,-100,-100,0,0,100,0.00,40.00,0,-999,0,0.01
2014-4-28,44,28,19,-100,-100,-100,0,0,100,0.00,40.00,0,-999,0,0.02
2014-4-29,46,41,36,-100,-100,-100,0,0,100,0.00,40.00,0,-999,0,0.02
2014-4-30,53,42,38,-100,-100,-100,0,0,100,0.00,40.00,0,-999,0,0.00
2014-5-1,59,47,36,-100,-100,-100,0,0,100,0.00,40.00,0,-999,0,0.01
2014-5-2,58,47,37,-100,-100,-100,0,0,100,0.00,40.00,0,-999,0,0.00
2014-5-3,53,46,40,-100,-100,-100,0,0,100,0.00,40.00,0,-999,0,0.01
2014-5-4,49,44,40,-100,-100,-100,0,0,100,0.00,40.00,0,-999,0,0.01
2014-5-5,44,40,32,-100,-100,-100,0,0,100,0.00,40.00,0,-999,0,0.04
2014-5-6,32,25,21,-100,-100,-100,0,0,100,0.00,40.00,0,-999,0,0.01
2014-5-13,53,48,45,-100,-100,-100,0,0,100,0.00,40.00,0,-999,0,0.00
2014-5-14,61,50,42,-100,-100,-100,0,0,100,0.00,40.00,0,-999,0,0.01
2014-5-15,62,48,42,-100,-100,-100,0,0,100,0.00,40.00,0,-999,0,0.00
2014-5-16,58,49,43,-100,-100,-100,0,0,100,0.00,40.00,0,-999,0,0.01
2014-5-17,57,47,39,-100,-100,-100,0,0,100,0.00,40.00,0,-999,0,0.00
2014-5-18,47,40,32,-100,-100,-100,0,0,100,0.00,40.00,0,-999,0,0.00
2014-5-19,44,36,29,-100,-100,-100,0,0,100,0.00,40.00,0,-999,0,0.00
2014-5-20,36,33,29,-100,-100,-100,0,0,100,0.00,40.00,0,-999,0,0.05
2014-5-21,45,39,36,-100,-100,-100,0,0,100,0.00,40.00,0,-999,0,0.04
2014-5-22,49,38,34,-100,-100,-100,0,0,100,0.00,40.00,0,-999,0,0.01
2014-5-23,59,47,35,-100,-100,-100,0,0,100,0.00,40.00,0,-999,0,0.00
2014-5-24,55,44,38,-100,-100,-100,0,0,100,0.00,40.00,0,-999,0,0.00
2014-5-25,63,49,40,-100,-100,-100,0,0,100,0.00,40.00,0,-999,0,0.02
2014-5-26,63,50,41,-100,-100,-100,0,0,100,0.00,40.00,0,-999,0,0.00
2014-5-27,61,50,45,-100,-100,-100,0,0,100,0.00,40.00,0,-999,0,0.00
2014-5-28,52,43,36,-100,-100,-100,0,0,100,0.00,40.00,0,-999,0,0.00
2014-5-29,55,43,35,-100,-100,-100,0,0,100,0.00,40.00,0,-999,0,0.00
2014-5-30,57,46,35,-100,-100,-100,0,0,100,0.00,40.00,0,-999,0,0.00
2014-5-31,56,43,34,-100,-100,-100,0,0,100,0.00,40.00,0,-999,0,0.00
2014-6-1,60,47,36,-100,-100,-100,0,0,100,0.00,40.00,0,-999,0,0.03
2014-6-2,56,46,39,-100,-100,-100,0,0,100,0.00,40.00,0,-999,0,0.01
2014-6-3,58,45,37,-100,-100,-100,0,0,100,0.00,40.00,0,-999,0,0.02
2014-6-4,62,51,38,-100,-100,-100,0,0,100,0.00,40.00,0,-999,0,0.00
2014-6-5,63,56,47,-100,-100,-100,0,0,100,0.00,40.00,0,-999,0,0.00
2014-6-6,66,53,44,-100,-100,-100,0,0,100,0.00,40.00,0,-999,0,0.00
2014-6-7,67,54,47,-100,-100,-100,0,0,100,0.00,40.00,0,-999,0,0.00
2014-6-8,68,56,49,-100,-100,-100,0,0,100,0.00,40.00,0,-999,0,0.01
2014-6-9,70,57,46,-100,-100,-100,0,0,100,0.00,40.00,0,-999,0,0.02
2014-6-10,67,55,46,-100,-100,-100,0,0,100,0.00,40.00,0,-999,0,0.00
2014-6-11,65,51,44,-100,-100,-100,0,0,100,0.00,40.00,0,-999,0,0.00
2014-6-12,59,51,45,-100,-100,-100,0,0,100,0.00,40.00,0,-999,0,0.01
2014-6-13,54,45,35,-100,-100,-100,0,0,100,0.00,40.00,0,-999,0,0.00
2014-6-14,54,43,32,-100,-100,-100,0,0,100,0.00,40.00,0,-999,0,0.00
2014-6-15,53,45,38,-100,-100,-100,0,0,100,0.00,40.00,0,-999,0,0.00
2014-6-16,50,44,38,-100,-100,-100,0,0,100,0.00,40.00,0,-999,0,0.00
2014-6-17,49,40,33,-100,-100,-100,0,0,100,0.00,40.00,0,-999,0,0.01
2014-6-18,57,43,30,-100,-100,-100,0,0,100,0.00,40.00,0,-999,0,0.01
2014-6-19,62,47,38,-100,-100,-100,0,0,100,0.00,40.00,0,-999,0,0.01
2014-6-20,64,52,42,-100,-100,-100,0,0,100,0.00,40.00,0,-999,0,0.01
2014-6-21,64,52,41,-100,-100,-100,0,0,100,0.00,40.00,0,-999,0,0.00
2014-6-22,63,49,39,-100,-100,-100,0,0,100,0.00,40.00,0,-999,0,0.00
2014-6-23,63,48,42,-100,-100,-100,0,0,100,0.00,40.00,0,-999,0,0.00
2014-6-24,60,49,43,-100,-100,-100,0,0,100,0.00,40.00,0,-999,0,0.00
2014-6-25,60,49,41,-100,-100,-100,0,0,100,0.00,40.00,0,-999,0,0.00
2014-6-26,48,43,41,-100,-100,-100,0,0,100,0.00,40.00,0,-999,0,0.00
2014-6-27,58,53,42,-100,-100,-100,0,0,100,0.00,40.00,0,-999,0,0.00
2014-6-28,61,48,40,-100,-100,-100,0,0,100,0.00,40.00,0,-999,0,0.00
2014-6-29,71,60,48,-100,-100,-100,0,0,100,0.00,40.00,0,-999,0,0.00
2014-6-30,69,59,49,-100,-100,-100,0,0,100,0.00,40.00,0,-999,0,0.00
2014-7-1,71,61,54,-100,-100,-100,0,0,100,0.00,40.00,0,-999,0,0.01
2014-7-2,68,54,46,-100,-100,-100,0,0,100,0.00,40.00,0,-999,0,0.00
2014-7-3,68,54,45,-100,-100,-100,0,0,100,0.00,40.00,0,-999,0,0.00
2014-7-4,68,55,46,-100,-100,-100,0,0,100,0.00,40.00,0,-999,0,0.00
2014-7-5,69,53,45,-100,-100,-100,0,0,100,0.00,40.00,0,-999,0,0.00
2014-7-6,70,57,51,-100,-100,-100,0,0,100,0.00,40.00,0,-999,0,0.00
2014-7-7,70,59,53,-100,-100,-100,0,0,100,0.00,40.00,0,-999,0,0.00
2014-7-8,67,59,53,-100,-100,-100,0,0,100,0.00,40.00,0,-999,0,0.02
2014-7-9,68,54,48,-100,-100,-100,0,0,100,0.00,40.00,0,-999,0,0.01
2014-7-10,66,58,49,-100,0,200,0,0,100,0.00,40.00,0,0,0,0.00
2014-7-11,62,54,49,-100,0,200,0,0,100,0.00,40.00,0,0,0,0.00
2014-7-12,69,56,48,-100,0,200,0,0,100,0.00,40.00,0,0,0,0.00
2014-7-13,72,62,52,-100,0,200,0,0,100,0.00,40.00,0,0,0,0.00
2014-7-14,74,64,54,-100,0,200,0,0,100,0.00,40.00,0,0,0,0.00
2014-7-15,73,62,54,-100,0,200,0,0,100,0.00,40.00,0,0,0,0.00